Aérodrome :







RETROUVEZ-NOUS SUR...

 
LOGIN :

S'inscrire | Disclaimer

   EN    FR    IT 

 









Légende :    VFR   VFR Marginal   IFR   IFR Intensif   IFR Très Intensif
Visi : 
Plafond : 
>= 8 km
>= 3000ft
5 à 8 km
1000 à 3000 ft
1500m à 5 km
500 à 1000 ft
800 à 1500m
200 à 500 ft
< 800m
< 200 ft
Symboles :   Orages  Brouillard  Fortes neiges  Fortes précipitations  Vent > 20 kt






- Altitude de l'aérodrome : 166 ft
- Code IATA : YCX


CYCX - Gagetown Heliport

DERNIER METAR :
  • 150227Z AUTO 03002KT 5/8SM VV002 04/04 A2925

METARs EXPIRÉS :
  • 150204Z AUTO 02002KT 5/8SM OVC001 04/04 A2927
  • 150119Z AUTO 36004KT 3/8SM VV001 04/04 A2929
  • 150103Z AUTO 05003KT 010V070 5/8SM OVC001 OVC008 04/04 A2929
  • 150056Z AUTO 04003KT 010V090 5/8SM OVC002 04/04 A2930
  • 150017Z AUTO 05003KT 010V070 5/8SM OVC001 04/04 A2934
  • 150000Z AUTO 05003KT 010V070 3/4SM OVC002 04/04 A2934 RMK SLP939
  • 142353Z AUTO 03005KT 360V070 3/4SM OVC002 04/04 A2934
  • 142345Z AUTO 05003KT 010V110 3/4SM OVC001 04/04 A2935

Prévision TAF périmée.



MET'MAP, la Météo Aéronautique d'un coup d'oeil ! - Copyright ORBIFLY Décembre 2007 - Disclaimer

ORBIFLY MET'MAP TEAM :

Programmation & Développement : Alexandra Zaïnal
Sur une idée originale de : Baudouin d'Aumeries
Assistance à la programmation : Marc-Olivier Méhu
Soutien technique & logistique : Manuel Goepfert

Contact : metmap@orbifly.com




SOURCES & CREDITS :

   NOAA